Pittsfield, IL

11:56 AM CST on February 08, 2016 (GMT -0600)
Pittsfield Penstone Municipal

Weather History for KPPQ - January, 2014

Change the Weather History Date:

Wednesday, January 15, 2014

  Actual Average (KUIN) Record (KUIN)
Temperature  
Mean Temperature 22 °F 26 °F  
Max Temperature 27 °F 34 °F 65 °F (1949)
Min Temperature 17 °F 18 °F -16 °F (1972)
Degree Days  
Heating Degree Days 43 39  
Month to date heating degree days 581  
Since 1 July heating degree days 2772  
Cooling Degree Days 0 0  
Month to date cooling degree days 0  
Year to date cooling degree days 0  
Moisture  
Dew Point 13 °F    
Average Humidity 67    
Maximum Humidity 77    
Minimum Humidity 56    
Precipitation  
Precipitation 0.00 in 0.05 in 0.64 in (1969)
Month to date precipitation 0.77  
Year to date precipitation 0.77  
Sea Level Pressure  
Sea Level Pressure 30.10 in    
Wind  
Wind Speed 12 mph (West)    
Max Wind Speed 21 mph    
Max Gust Speed 26 mph    
Visibility 10 miles    
Events Snow    
T = Trace of Precipitation, MM = Missing Value Source: NWS Daily Summary

Daily Weather History Graph

Daily Weather History Graph

Search for Another Location

Airport or City:

Trip Planner

Search our weather history database for the weather conditions in past years. The results will help you decide how hot, cold, wet, or windy it might be!

Date:

Astronomy

Jan. 15, 2014 Rise Set
Actual Time 7:22 AM CST 5:03 PM CST
Civil Twilight 6:52 AM CST 5:32 PM CST
Nautical Twilight 6:19 AM CST 6:06 PM CST
Astronomical Twilight 5:47 AM CST 6:38 PM CST
Moon 5:01 PM CST (1/15) 6:38 AM CST (1/15)
Length of Visible Light 10h 40m
Length of Day
9h 41m
Full, 100% of the Moon is Illuminated
Jan 15
Full
Jan 15
Full
Jan 23
Last Quarter
Jan 30
New
Feb 6
First Quarter

Hourly Weather History & Observations

Time (CST) Temp. Windchill Dew Point Humidity Pressure Visibility Wind Dir Wind Speed Gust Speed Precip Events Conditions
12:15 AM 25.3 °F 11.0 °F 14.4 °F 63% 30.09 in 10.0 mi WNW 20.7 mph 26.5 mph N/A   Overcast
12:35 AM 25.3 °F 14.7 °F 14.5 °F 64% 30.09 in 10.0 mi WNW 11.5 mph 19.6 mph N/A   Overcast
12:55 AM 25.3 °F 14.1 °F 14.7 °F 64% 30.09 in 10.0 mi WNW 12.7 mph 18.4 mph N/A   Overcast
1:15 AM 25.2 °F 14.4 °F 14.4 °F 64% 30.09 in 10.0 mi WNW 11.5 mph 17.3 mph N/A   Overcast
1:35 AM 25.0 °F 13.6 °F 15.4 °F 67% 30.10 in 10.0 mi NW 12.7 mph - N/A   Overcast
1:55 AM 24.6 °F 14.4 °F 16.0 °F 70% 30.11 in 10.0 mi NW 10.4 mph 18.4 mph N/A   Overcast
2:15 AM 23.9 °F 12.9 °F 13.8 °F 65% 30.11 in 10.0 mi WNW 11.5 mph 20.7 mph N/A   Scattered Clouds
2:35 AM 23.5 °F 10.3 °F 13.8 °F 66% 30.11 in 10.0 mi WNW 16.1 mph 23.0 mph N/A   Clear
2:55 AM 23.0 °F 10.6 °F 13.8 °F 68% 30.11 in 10.0 mi NW 13.8 mph 18.4 mph N/A   Clear
3:15 AM 23.0 °F 12.4 °F 14.5 °F 70% 30.11 in 10.0 mi WNW 10.4 mph 17.3 mph N/A   Clear
3:35 AM 22.6 °F 10.1 °F 13.3 °F 67% 30.12 in 10.0 mi WNW 13.8 mph 19.6 mph N/A   Clear
3:55 AM 22.1 °F 9.5 °F 14.0 °F 71% 30.12 in 10.0 mi NW 13.8 mph 17.3 mph N/A   Clear
4:15 AM 21.2 °F 9.5 °F 12.7 °F 70% 30.12 in 10.0 mi NW 11.5 mph 21.9 mph N/A   Scattered Clouds
4:35 AM 21.0 °F 8.6 °F 12.7 °F 70% 30.13 in 10.0 mi WNW 12.7 mph 18.4 mph N/A   Scattered Clouds
4:55 AM 21.0 °F 8.6 °F 13.1 °F 71% 30.13 in 10.0 mi NW 12.7 mph 17.3 mph N/A   Overcast
5:15 AM 20.7 °F 8.2 °F 12.9 °F 72% 30.13 in 10.0 mi NW 12.7 mph - N/A   Overcast
5:35 AM 20.3 °F 8.3 °F 12.9 °F 73% 30.14 in 10.0 mi NW 11.5 mph - N/A   Overcast
5:55 AM 19.8 °F 7.1 °F 12.6 °F 74% 30.14 in 10.0 mi NW 12.7 mph 18.4 mph N/A Snow Light Snow
6:15 AM 19.4 °F 6.6 °F 12.2 °F 74% 30.14 in 10.0 mi NW 12.7 mph - N/A   Overcast
6:35 AM 19.2 °F 7.7 °F 12.6 °F 75% 30.15 in 10.0 mi NW 10.4 mph - N/A Snow Light Snow
6:55 AM 19.4 °F 6.0 °F 11.5 °F 71% 30.16 in 10.0 mi WNW 13.8 mph 17.3 mph N/A   Overcast
7:15 AM 19.0 °F 6.8 °F 11.5 °F 72% 30.16 in 10.0 mi NW 11.5 mph - N/A Snow Light Snow
7:35 AM 18.5 °F 7.5 °F 12.0 °F 76% 30.17 in 10.0 mi NW 9.2 mph - N/A   Mostly Cloudy
7:55 AM 17.6 °F 4.3 °F 9.9 °F 72% 30.18 in 10.0 mi WNW 12.7 mph 18.4 mph N/A   Scattered Clouds
8:15 AM 17.6 °F 4.3 °F 10.0 °F 72% 30.19 in 10.0 mi WNW 12.7 mph 17.3 mph N/A   Clear
8:35 AM 17.6 °F 4.3 °F 10.4 °F 73% 30.19 in 10.0 mi NW 12.7 mph - N/A   Clear
8:55 AM 18.1 °F 5.0 °F 9.9 °F 70% 30.20 in 10.0 mi NW 12.7 mph 17.3 mph N/A   Clear
9:15 AM 18.5 °F 5.5 °F 10.2 °F 70% 30.20 in 10.0 mi NW 12.7 mph 19.6 mph N/A   Clear
9:35 AM 19.0 °F 7.5 °F 10.8 °F 70% 30.21 in 10.0 mi WNW 10.4 mph 18.4 mph N/A   Scattered Clouds
9:55 AM 19.2 °F 9.3 °F 10.4 °F 69% 30.20 in 10.0 mi WNW 8.1 mph - N/A   Scattered Clouds
10:15 AM 19.9 °F 9.3 °F 10.4 °F 67% 30.21 in 10.0 mi NW 9.2 mph - N/A   Scattered Clouds
10:35 AM 20.3 °F 9.0 °F 9.7 °F 64% 30.21 in 10.0 mi WNW 10.4 mph 17.3 mph N/A   Scattered Clouds
10:55 AM 21.4 °F 11.9 °F 10.6 °F 63% 30.21 in 10.0 mi WNW 8.1 mph - N/A   Mostly Cloudy
11:15 AM 21.2 °F 12.6 °F 9.9 °F 62% 30.20 in 10.0 mi WNW 6.9 mph - N/A   Scattered Clouds
11:35 AM 22.1 °F 13.7 °F 10.8 °F 62% 30.19 in 10.0 mi West 6.9 mph - N/A   Clear
11:55 AM 22.8 °F 12.2 °F 10.9 °F 60% 30.18 in 10.0 mi West 10.4 mph - N/A   Scattered Clouds
12:15 PM 22.8 °F 15.5 °F 10.9 °F 60% 30.16 in 10.0 mi West 5.8 mph - N/A   Clear
12:35 PM 23.2 °F 12.6 °F 10.9 °F 60% 30.15 in 10.0 mi WNW 10.4 mph - N/A   Clear
12:55 PM 23.9 °F 12.9 °F 11.3 °F 59% 30.16 in 10.0 mi West 11.5 mph - N/A   Scattered Clouds
1:15 PM 24.1 °F 14.4 °F 10.9 °F 57% 30.15 in 10.0 mi WSW 9.2 mph - N/A   Scattered Clouds
1:35 PM 24.4 °F 14.9 °F 11.3 °F 57% 30.14 in 10.0 mi West 9.2 mph 16.1 mph N/A   Scattered Clouds
1:55 PM 24.3 °F 13.9 °F 11.1 °F 57% 30.14 in 10.0 mi WSW 10.4 mph 16.1 mph N/A   Scattered Clouds
2:15 PM 24.6 °F 16.7 °F 11.8 °F 58% 30.13 in 10.0 mi WSW 6.9 mph - N/A   Clear
2:35 PM 24.6 °F 15.8 °F 12.2 °F 59% 30.12 in 10.0 mi WSW 8.1 mph - N/A   Scattered Clouds
2:55 PM 25.0 °F 15.5 °F 11.8 °F 57% 30.12 in 10.0 mi West 9.2 mph - N/A   Scattered Clouds
3:15 PM 25.9 °F 16.6 °F 12.2 °F 56% 30.12 in 10.0 mi WSW 9.2 mph - N/A   Scattered Clouds
3:35 PM 25.7 °F 15.7 °F 12.4 °F 57% 30.12 in 10.0 mi WSW 10.4 mph - N/A   Scattered Clouds
3:55 PM 25.7 °F 15.7 °F 12.7 °F 58% 30.12 in 10.0 mi WSW 10.4 mph - N/A   Scattered Clouds
4:15 PM 25.7 °F 15.7 °F 12.4 °F 57% 30.12 in 10.0 mi WSW 10.4 mph - N/A   Clear
4:35 PM 25.5 °F 16.2 °F 13.6 °F 61% 30.11 in 10.0 mi SW 9.2 mph - N/A   Clear
4:55 PM 25.2 °F 17.3 °F 13.8 °F 62% 30.09 in 10.0 mi SW 6.9 mph - N/A   Clear
5:15 PM 24.6 °F 16.7 °F 14.2 °F 65% 30.08 in 10.0 mi SSW 6.9 mph - N/A   Clear
5:35 PM 24.4 °F 17.5 °F 14.5 °F 66% 30.09 in 10.0 mi SSW 5.8 mph - N/A   Clear
5:55 PM 23.9 °F 16.8 °F 14.7 °F 68% 30.08 in 10.0 mi SSW 5.8 mph - N/A   Clear
6:15 PM 23.5 °F 17.6 °F 14.7 °F 69% 30.07 in 10.0 mi South 4.6 mph - N/A   Clear
6:35 PM 23.5 °F 17.6 °F 15.3 °F 71% 30.06 in 10.0 mi South 4.6 mph - N/A   Clear
6:55 PM 23.4 °F 17.4 °F 15.1 °F 71% 30.06 in 10.0 mi South 4.6 mph - N/A   Clear
7:15 PM 23.2 °F 16.0 °F 15.3 °F 72% 30.04 in 10.0 mi South 5.8 mph - N/A   Clear
7:35 PM 22.3 °F 14.9 °F 15.6 °F 76% 30.03 in 10.0 mi South 5.8 mph - N/A   Clear
7:55 PM 22.6 °F 16.5 °F 15.4 °F 74% 30.03 in 10.0 mi South 4.6 mph - N/A   Clear
8:15 PM 22.1 °F 15.9 °F 15.8 °F 77% 30.03 in 10.0 mi South 4.6 mph - N/A   Clear
8:35 PM 22.1 °F 13.7 °F 15.6 °F 76% 30.01 in 10.0 mi South 6.9 mph - N/A   Clear
8:55 PM 23.0 °F 14.7 °F 15.8 °F 74% 30.00 in 10.0 mi South 6.9 mph - N/A   Clear
9:15 PM 23.5 °F 14.5 °F 16.2 °F 73% 29.98 in 10.0 mi South 8.1 mph - N/A   Clear
9:35 PM 24.1 °F 15.2 °F 16.5 °F 73% 29.98 in 10.0 mi South 8.1 mph - N/A   Mostly Cloudy
9:55 PM 24.8 °F 14.6 °F 16.7 °F 71% 29.97 in 10.0 mi South 10.4 mph - N/A   Overcast
10:15 PM 25.7 °F 15.7 °F 17.1 °F 70% 29.95 in 10.0 mi South 10.4 mph 16.1 mph N/A   Overcast
10:35 PM 26.2 °F 16.4 °F 16.7 °F 67% 29.93 in 10.0 mi South 10.4 mph 19.6 mph N/A   Overcast
10:55 PM 26.6 °F 16.2 °F 16.3 °F 65% 29.93 in 10.0 mi SSW 11.5 mph - N/A   Overcast
11:15 PM 27.0 °F 17.3 °F 16.0 °F 63% 29.92 in 10.0 mi South 10.4 mph - N/A   Overcast
11:35 PM 27.1 °F 18.2 °F 16.2 °F 63% 29.91 in 10.0 mi South 9.2 mph - N/A   Overcast
11:55 PM 27.5 °F 18.0 °F 15.8 °F 61% 29.90 in 10.0 mi South 10.4 mph - N/A   Overcast